sensor_id;sensor_type;location;lat;lon;timestamp;temperature;humidity
33673;DHT22;20011;51.510;9.942;2024-01-10T00:02:05;-3.10;99.50
33673;DHT22;20011;51.510;9.942;2024-01-10T00:04:32;-2.80;99.60
33673;DHT22;20011;51.510;9.942;2024-01-10T00:06:59;-3.00;98.80
33673;DHT22;20011;51.510;9.942;2024-01-10T00:09:26;-3.20;99.00
33673;DHT22;20011;51.510;9.942;2024-01-10T00:11:53;-2.80;98.90
33673;DHT22;20011;51.510;9.942;2024-01-10T00:14:20;-3.20;98.60
33673;DHT22;20011;51.510;9.942;2024-01-10T00:16:47;-2.90;98.40
33673;DHT22;20011;51.510;9.942;2024-01-10T00:19:14;-3.20;98.80
33673;DHT22;20011;51.510;9.942;2024-01-10T00:21:41;-3.50;99.00
33673;DHT22;20011;51.510;9.942;2024-01-10T00:24:08;-3.60;98.60
33673;DHT22;20011;51.510;9.942;2024-01-10T00:26:35;-3.50;99.10
33673;DHT22;20011;51.510;9.942;2024-01-10T00:29:02;-3.70;99.60
33673;DHT22;20011;51.510;9.942;2024-01-10T00:31:31;-3.60;99.50
33673;DHT22;20011;51.510;9.942;2024-01-10T00:33:58;-3.30;99.80
33673;DHT22;20011;51.510;9.942;2024-01-10T00:36:26;-3.30;98.90
33673;DHT22;20011;51.510;9.942;2024-01-10T00:38:53;-3.50;98.40
33673;DHT22;20011;51.510;9.942;2024-01-10T00:41:19;-2.90;99.50
33673;DHT22;20011;51.510;9.942;2024-01-10T00:43:47;-3.60;99.00
33673;DHT22;20011;51.510;9.942;2024-01-10T00:46:14;-3.70;99.60
33673;DHT22;20011;51.510;9.942;2024-01-10T00:48:40;-3.70;99.80
33673;DHT22;20011;51.510;9.942;2024-01-10T00:51:08;-3.40;99.70
33673;DHT22;20011;51.510;9.942;2024-01-10T00:53:36;-3.50;99.50
33673;DHT22;20011;51.510;9.942;2024-01-10T00:56:06;-3.30;99.10
33673;DHT22;20011;51.510;9.942;2024-01-10T00:58:33;-3.50;98.90
33673;DHT22;20011;51.510;9.942;2024-01-10T01:01:00;-3.50;98.90
33673;DHT22;20011;51.510;9.942;2024-01-10T01:03:27;-3.40;99.00
33673;DHT22;20011;51.510;9.942;2024-01-10T01:05:55;-3.10;99.00
33673;DHT22;20011;51.510;9.942;2024-01-10T01:08:22;-3.20;98.60
33673;DHT22;20011;51.510;9.942;2024-01-10T01:10:49;-3.20;98.50
33673;DHT22;20011;51.510;9.942;2024-01-10T01:13:16;-3.00;99.00
33673;DHT22;20011;51.510;9.942;2024-01-10T01:15:43;-3.40;99.30
33673;DHT22;20011;51.510;9.942;2024-01-10T01:18:10;-3.40;99.10
33673;DHT22;20011;51.510;9.942;2024-01-10T01:20:40;-3.30;99.70
33673;DHT22;20011;51.510;9.942;2024-01-10T01:23:07;-3.40;99.40
33673;DHT22;20011;51.510;9.942;2024-01-10T01:25:34;-3.20;99.40
33673;DHT22;20011;51.510;9.942;2024-01-10T01:28:01;-3.50;98.90
33673;DHT22;20011;51.510;9.942;2024-01-10T01:30:28;-3.10;98.70
33673;DHT22;20011;51.510;9.942;2024-01-10T01:32:55;-3.00;98.90
33673;DHT22;20011;51.510;9.942;2024-01-10T01:35:22;-3.50;98.50
33673;DHT22;20011;51.510;9.942;2024-01-10T01:37:50;-3.40;98.40
33673;DHT22;20011;51.510;9.942;2024-01-10T01:40:18;-3.40;98.90
33673;DHT22;20011;51.510;9.942;2024-01-10T01:42:45;-3.70;98.80
33673;DHT22;20011;51.510;9.942;2024-01-10T01:45:13;-3.60;98.80
33673;DHT22;20011;51.510;9.942;2024-01-10T01:47:40;-3.60;98.90
33673;DHT22;20011;51.510;9.942;2024-01-10T01:50:08;-3.80;98.60
33673;DHT22;20011;51.510;9.942;2024-01-10T01:52:36;-3.70;98.50
33673;DHT22;20011;51.510;9.942;2024-01-10T01:55:03;-3.60;98.60
33673;DHT22;20011;51.510;9.942;2024-01-10T01:57:31;-3.70;98.40
33673;DHT22;20011;51.510;9.942;2024-01-10T01:59:58;-3.80;98.70
33673;DHT22;20011;51.510;9.942;2024-01-10T02:02:25;-3.60;98.30
33673;DHT22;20011;51.510;9.942;2024-01-10T02:04:54;-3.90;98.50
33673;DHT22;20011;51.510;9.942;2024-01-10T02:07:22;-3.80;99.00
33673;DHT22;20011;51.510;9.942;2024-01-10T02:09:49;-4.10;99.30
33673;DHT22;20011;51.510;9.942;2024-01-10T02:12:16;-4.00;99.80
33673;DHT22;20011;51.510;9.942;2024-01-10T02:14:43;-4.30;99.90
33673;DHT22;20011;51.510;9.942;2024-01-10T02:17:10;-4.20;99.90
33673;DHT22;20011;51.510;9.942;2024-01-10T02:19:37;-3.90;99.60
33673;DHT22;20011;51.510;9.942;2024-01-10T02:22:04;-4.30;99.60
33673;DHT22;20011;51.510;9.942;2024-01-10T02:24:31;-4.10;99.90
33673;DHT22;20011;51.510;9.942;2024-01-10T02:26:58;-4.30;99.90
33673;DHT22;20011;51.510;9.942;2024-01-10T02:29:26;-4.40;99.90
33673;DHT22;20011;51.510;9.942;2024-01-10T02:31:53;-4.20;99.90
33673;DHT22;20011;51.510;9.942;2024-01-10T02:34:20;-4.30;99.90
33673;DHT22;20011;51.510;9.942;2024-01-10T02:36:47;-4.00;99.90
33673;DHT22;20011;51.510;9.942;2024-01-10T02:39:14;-3.70;99.90
33673;DHT22;20011;51.510;9.942;2024-01-10T02:41:41;-4.00;99.90
33673;DHT22;20011;51.510;9.942;2024-01-10T02:44:08;-4.00;99.90
33673;DHT22;20011;51.510;9.942;2024-01-10T02:46:35;-4.40;99.90
33673;DHT22;20011;51.510;9.942;2024-01-10T02:49:02;-4.30;99.90
33673;DHT22;20011;51.510;9.942;2024-01-10T02:51:29;-4.40;99.90
33673;DHT22;20011;51.510;9.942;2024-01-10T02:53:57;-4.20;99.90
33673;DHT22;20011;51.510;9.942;2024-01-10T02:56:24;-4.30;99.90
33673;DHT22;20011;51.510;9.942;2024-01-10T02:58:51;-4.10;99.90
33673;DHT22;20011;51.510;9.942;2024-01-10T03:01:18;-4.30;99.90
33673;DHT22;20011;51.510;9.942;2024-01-10T03:03:45;-4.00;99.90
33673;DHT22;20011;51.510;9.942;2024-01-10T03:06:12;-4.40;99.90
33673;DHT22;20011;51.510;9.942;2024-01-10T03:08:40;-4.30;99.90
33673;DHT22;20011;51.510;9.942;2024-01-10T03:11:06;-4.30;99.90
33673;DHT22;20011;51.510;9.942;2024-01-10T03:13:34;-4.20;99.90
33673;DHT22;20011;51.510;9.942;2024-01-10T03:16:01;-4.20;99.90
33673;DHT22;20011;51.510;9.942;2024-01-10T03:18:28;-4.30;99.90
33673;DHT22;20011;51.510;9.942;2024-01-10T03:20:55;-4.40;99.90
33673;DHT22;20011;51.510;9.942;2024-01-10T03:23:22;-4.40;99.90
33673;DHT22;20011;51.510;9.942;2024-01-10T03:25:49;-4.30;99.90
33673;DHT22;20011;51.510;9.942;2024-01-10T03:28:16;-4.10;99.90
33673;DHT22;20011;51.510;9.942;2024-01-10T03:30:44;-4.30;99.90
33673;DHT22;20011;51.510;9.942;2024-01-10T03:33:12;-4.40;99.90
33673;DHT22;20011;51.510;9.942;2024-01-10T03:35:39;-4.30;99.90
33673;DHT22;20011;51.510;9.942;2024-01-10T03:38:06;-4.50;99.90
33673;DHT22;20011;51.510;9.942;2024-01-10T03:40:33;-4.50;99.90
33673;DHT22;20011;51.510;9.942;2024-01-10T03:43:00;-4.50;99.90
33673;DHT22;20011;51.510;9.942;2024-01-10T03:45:27;-4.50;99.90
33673;DHT22;20011;51.510;9.942;2024-01-10T03:47:55;-4.50;99.90
33673;DHT22;20011;51.510;9.942;2024-01-10T03:50:22;-4.30;99.90
33673;DHT22;20011;51.510;9.942;2024-01-10T03:52:49;-3.90;99.90
33673;DHT22;20011;51.510;9.942;2024-01-10T03:55:16;-4.40;99.90
33673;DHT22;20011;51.510;9.942;2024-01-10T03:57:43;-4.60;99.90
33673;DHT22;20011;51.510;9.942;2024-01-10T04:00:11;-3.90;99.90
33673;DHT22;20011;51.510;9.942;2024-01-10T04:02:38;-4.20;99.90
33673;DHT22;20011;51.510;9.942;2024-01-10T04:05:07;-4.20;99.90
33673;DHT22;20011;51.510;9.942;2024-01-10T04:07:36;-4.40;99.90
33673;DHT22;20011;51.510;9.942;2024-01-10T04:10:04;-4.30;99.90
33673;DHT22;20011;51.510;9.942;2024-01-10T04:12:31;-4.30;99.90
33673;DHT22;20011;51.510;9.942;2024-01-10T04:14:58;-4.30;99.90
33673;DHT22;20011;51.510;9.942;2024-01-10T04:17:25;-4.40;99.90
33673;DHT22;20011;51.510;9.942;2024-01-10T04:19:53;-4.30;99.90
33673;DHT22;20011;51.510;9.942;2024-01-10T04:22:19;-4.30;99.90
33673;DHT22;20011;51.510;9.942;2024-01-10T04:24:46;-3.80;99.90
33673;DHT22;20011;51.510;9.942;2024-01-10T04:27:13;-4.50;99.90
33673;DHT22;20011;51.510;9.942;2024-01-10T04:29:40;-3.70;99.90
33673;DHT22;20011;51.510;9.942;2024-01-10T04:32:07;-4.30;99.90
33673;DHT22;20011;51.510;9.942;2024-01-10T04:34:34;-3.80;99.50
33673;DHT22;20011;51.510;9.942;2024-01-10T04:37:02;-4.30;99.50
33673;DHT22;20011;51.510;9.942;2024-01-10T04:39:29;-4.40;99.60
33673;DHT22;20011;51.510;9.942;2024-01-10T04:41:56;-4.60;99.90
33673;DHT22;20011;51.510;9.942;2024-01-10T04:44:23;-4.70;99.90
33673;DHT22;20011;51.510;9.942;2024-01-10T04:46:50;-4.40;99.90
33673;DHT22;20011;51.510;9.942;2024-01-10T04:49:18;-4.70;99.90
33673;DHT22;20011;51.510;9.942;2024-01-10T04:51:46;-4.80;99.90
33673;DHT22;20011;51.510;9.942;2024-01-10T04:54:13;-4.90;99.90
33673;DHT22;20011;51.510;9.942;2024-01-10T04:56:40;-4.90;99.90
33673;DHT22;20011;51.510;9.942;2024-01-10T04:59:07;-4.50;99.90
33673;DHT22;20011;51.510;9.942;2024-01-10T05:01:34;-4.70;99.90
33673;DHT22;20011;51.510;9.942;2024-01-10T05:04:01;-4.70;99.90
33673;DHT22;20011;51.510;9.942;2024-01-10T05:06:28;-4.50;99.90
33673;DHT22;20011;51.510;9.942;2024-01-10T05:08:55;-4.40;99.90
33673;DHT22;20011;51.510;9.942;2024-01-10T05:11:25;-4.70;99.90
33673;DHT22;20011;51.510;9.942;2024-01-10T05:13:52;-4.80;99.90
33673;DHT22;20011;51.510;9.942;2024-01-10T05:16:19;-4.70;99.90
33673;DHT22;20011;51.510;9.942;2024-01-10T05:18:46;-4.60;99.90
33673;DHT22;20011;51.510;9.942;2024-01-10T05:21:13;-4.70;99.90
33673;DHT22;20011;51.510;9.942;2024-01-10T05:23:40;-4.70;99.90
33673;DHT22;20011;51.510;9.942;2024-01-10T05:26:07;-4.60;99.90
33673;DHT22;20011;51.510;9.942;2024-01-10T05:28:34;-4.60;99.90
33673;DHT22;20011;51.510;9.942;2024-01-10T05:31:02;-4.60;99.90
33673;DHT22;20011;51.510;9.942;2024-01-10T05:33:29;-4.80;99.90
33673;DHT22;20011;51.510;9.942;2024-01-10T05:35:57;-4.80;99.90
33673;DHT22;20011;51.510;9.942;2024-01-10T05:38:25;-4.50;99.90
33673;DHT22;20011;51.510;9.942;2024-01-10T05:40:52;-4.50;99.90
33673;DHT22;20011;51.510;9.942;2024-01-10T05:43:19;-4.80;99.90
33673;DHT22;20011;51.510;9.942;2024-01-10T05:45:46;-4.40;99.90
33673;DHT22;20011;51.510;9.942;2024-01-10T05:48:13;-4.50;99.90
33673;DHT22;20011;51.510;9.942;2024-01-10T05:50:40;-4.30;99.90
33673;DHT22;20011;51.510;9.942;2024-01-10T05:53:07;-4.50;99.50
33673;DHT22;20011;51.510;9.942;2024-01-10T05:55:35;-4.60;99.90
33673;DHT22;20011;51.510;9.942;2024-01-10T05:58:03;-4.60;99.90
33673;DHT22;20011;51.510;9.942;2024-01-10T06:00:30;-4.80;99.90
33673;DHT22;20011;51.510;9.942;2024-01-10T06:02:58;-4.50;99.90
33673;DHT22;20011;51.510;9.942;2024-01-10T06:05:25;-4.70;99.90
33673;DHT22;20011;51.510;9.942;2024-01-10T06:07:52;-4.70;99.90
33673;DHT22;20011;51.510;9.942;2024-01-10T06:10:19;-4.60;99.90
33673;DHT22;20011;51.510;9.942;2024-01-10T06:12:46;-4.80;99.90
33673;DHT22;20011;51.510;9.942;2024-01-10T06:15:13;-4.50;99.90
33673;DHT22;20011;51.510;9.942;2024-01-10T06:17:40;-4.90;99.90
33673;DHT22;20011;51.510;9.942;2024-01-10T06:20:08;-4.90;99.90
33673;DHT22;20011;51.510;9.942;2024-01-10T06:22:36;-4.50;99.90
33673;DHT22;20011;51.510;9.942;2024-01-10T06:25:03;-4.50;99.90
33673;DHT22;20011;51.510;9.942;2024-01-10T06:27:31;-4.50;99.90
33673;DHT22;20011;51.510;9.942;2024-01-10T06:29:58;-4.30;99.90
33673;DHT22;20011;51.510;9.942;2024-01-10T06:32:25;-4.10;99.90
33673;DHT22;20011;51.510;9.942;2024-01-10T06:34:52;-4.10;99.90
33673;DHT22;20011;51.510;9.942;2024-01-10T06:37:20;-4.70;99.90
33673;DHT22;20011;51.510;9.942;2024-01-10T06:39:47;-4.70;99.90
33673;DHT22;20011;51.510;9.942;2024-01-10T06:42:14;-4.80;99.90
33673;DHT22;20011;51.510;9.942;2024-01-10T06:44:40;-4.80;99.90
33673;DHT22;20011;51.510;9.942;2024-01-10T06:47:07;-4.60;99.90
33673;DHT22;20011;51.510;9.942;2024-01-10T06:49:35;-4.80;99.90
33673;DHT22;20011;51.510;9.942;2024-01-10T06:52:02;-4.90;99.90
33673;DHT22;20011;51.510;9.942;2024-01-10T06:54:29;-4.80;99.90
33673;DHT22;20011;51.510;9.942;2024-01-10T06:56:56;-4.80;99.90
33673;DHT22;20011;51.510;9.942;2024-01-10T06:59:23;-4.90;99.90
33673;DHT22;20011;51.510;9.942;2024-01-10T07:01:53;-4.70;99.90
33673;DHT22;20011;51.510;9.942;2024-01-10T07:04:23;-4.30;99.90
33673;DHT22;20011;51.510;9.942;2024-01-10T07:06:51;-4.50;99.90
33673;DHT22;20011;51.510;9.942;2024-01-10T07:09:18;-4.70;99.90
33673;DHT22;20011;51.510;9.942;2024-01-10T07:11:47;-4.80;99.90
33673;DHT22;20011;51.510;9.942;2024-01-10T07:14:15;-4.60;99.90
33673;DHT22;20011;51.510;9.942;2024-01-10T07:16:42;-4.30;99.90
33673;DHT22;20011;51.510;9.942;2024-01-10T07:19:13;-4.60;99.90
33673;DHT22;20011;51.510;9.942;2024-01-10T07:21:41;-4.60;99.90
33673;DHT22;20011;51.510;9.942;2024-01-10T07:24:09;-4.40;99.90
33673;DHT22;20011;51.510;9.942;2024-01-10T07:26:36;-4.30;99.90
33673;DHT22;20011;51.510;9.942;2024-01-10T07:29:07;-4.00;99.90
33673;DHT22;20011;51.510;9.942;2024-01-10T07:31:36;-4.50;99.90
33673;DHT22;20011;51.510;9.942;2024-01-10T07:34:04;-4.40;99.90
33673;DHT22;20011;51.510;9.942;2024-01-10T07:36:33;-4.70;99.90
33673;DHT22;20011;51.510;9.942;2024-01-10T07:39:03;-4.90;99.90
33673;DHT22;20011;51.510;9.942;2024-01-10T07:41:30;-4.90;99.90
33673;DHT22;20011;51.510;9.942;2024-01-10T07:43:58;-5.00;99.90
33673;DHT22;20011;51.510;9.942;2024-01-10T07:46:25;-4.80;99.90
33673;DHT22;20011;51.510;9.942;2024-01-10T07:48:54;-4.50;99.90
33673;DHT22;20011;51.510;9.942;2024-01-10T07:51:21;-4.20;99.90
33673;DHT22;20011;51.510;9.942;2024-01-10T07:53:48;-4.50;99.90
33673;DHT22;20011;51.510;9.942;2024-01-10T07:56:15;-3.60;99.90
33673;DHT22;20011;51.510;9.942;2024-01-10T07:58:42;-4.30;99.90
33673;DHT22;20011;51.510;9.942;2024-01-10T08:01:34;-4.20;99.90
33673;DHT22;20011;51.510;9.942;2024-01-10T08:04:01;-4.20;99.90
33673;DHT22;20011;51.510;9.942;2024-01-10T08:06:28;-4.40;99.90
33673;DHT22;20011;51.510;9.942;2024-01-10T08:08:59;-4.50;99.90
33673;DHT22;20011;51.510;9.942;2024-01-10T08:11:26;-4.30;99.90
33673;DHT22;20011;51.510;9.942;2024-01-10T08:13:53;-4.50;99.90
33673;DHT22;20011;51.510;9.942;2024-01-10T08:16:20;-4.40;99.90
33673;DHT22;20011;51.510;9.942;2024-01-10T08:18:48;-4.30;99.90
33673;DHT22;20011;51.510;9.942;2024-01-10T08:21:15;-4.10;99.90
33673;DHT22;20011;51.510;9.942;2024-01-10T08:23:42;-4.00;99.90
33673;DHT22;20011;51.510;9.942;2024-01-10T08:26:10;-3.80;99.90
33673;DHT22;20011;51.510;9.942;2024-01-10T08:28:37;-3.20;99.90
33673;DHT22;20011;51.510;9.942;2024-01-10T08:31:04;-4.00;99.90
33673;DHT22;20011;51.510;9.942;2024-01-10T08:33:32;-4.20;99.90
33673;DHT22;20011;51.510;9.942;2024-01-10T08:35:59;-3.80;99.90
33673;DHT22;20011;51.510;9.942;2024-01-10T08:38:27;-4.00;99.90
33673;DHT22;20011;51.510;9.942;2024-01-10T08:40:54;-3.90;99.90
33673;DHT22;20011;51.510;9.942;2024-01-10T08:43:21;-3.30;99.90
33673;DHT22;20011;51.510;9.942;2024-01-10T08:45:48;-3.30;99.90
33673;DHT22;20011;51.510;9.942;2024-01-10T08:48:15;-3.50;99.90
33673;DHT22;20011;51.510;9.942;2024-01-10T08:50:43;-3.50;99.90
33673;DHT22;20011;51.510;9.942;2024-01-10T08:53:11;-3.60;99.90
33673;DHT22;20011;51.510;9.942;2024-01-10T08:55:38;-2.70;99.90
33673;DHT22;20011;51.510;9.942;2024-01-10T08:58:05;-3.80;99.90
33673;DHT22;20011;51.510;9.942;2024-01-10T09:00:32;-3.70;99.90
33673;DHT22;20011;51.510;9.942;2024-01-10T09:03:00;-3.60;99.90
33673;DHT22;20011;51.510;9.942;2024-01-10T09:05:27;-3.30;99.90
33673;DHT22;20011;51.510;9.942;2024-01-10T09:07:55;-3.30;99.90
33673;DHT22;20011;51.510;9.942;2024-01-10T09:10:22;-3.40;99.90
33673;DHT22;20011;51.510;9.942;2024-01-10T09:12:49;-3.40;99.90
33673;DHT22;20011;51.510;9.942;2024-01-10T09:15:16;-3.20;99.90
33673;DHT22;20011;51.510;9.942;2024-01-10T09:17:44;-3.40;99.90
33673;DHT22;20011;51.510;9.942;2024-01-10T09:20:12;-2.80;99.90
33673;DHT22;20011;51.510;9.942;2024-01-10T09:22:39;-3.40;99.90
33673;DHT22;20011;51.510;9.942;2024-01-10T09:25:07;-2.80;99.90
33673;DHT22;20011;51.510;9.942;2024-01-10T09:27:35;-3.40;99.90
33673;DHT22;20011;51.510;9.942;2024-01-10T09:30:03;-2.90;99.90
33673;DHT22;20011;51.510;9.942;2024-01-10T09:32:30;-3.10;99.90
33673;DHT22;20011;51.510;9.942;2024-01-10T09:34:58;-2.60;99.90
33673;DHT22;20011;51.510;9.942;2024-01-10T09:37:25;-2.80;99.90
33673;DHT22;20011;51.510;9.942;2024-01-10T09:39:52;-2.70;99.90
33673;DHT22;20011;51.510;9.942;2024-01-10T09:42:20;-2.40;99.90
33673;DHT22;20011;51.510;9.942;2024-01-10T09:44:52;-2.40;99.90
33673;DHT22;20011;51.510;9.942;2024-01-10T09:47:20;-2.70;99.30
33673;DHT22;20011;51.510;9.942;2024-01-10T09:49:47;-2.90;99.30
33673;DHT22;20011;51.510;9.942;2024-01-10T09:52:24;-2.50;99.60
33673;DHT22;20011;51.510;9.942;2024-01-10T09:54:55;-2.60;99.10
33673;DHT22;20011;51.510;9.942;2024-01-10T09:57:26;-2.20;98.90
33673;DHT22;20011;51.510;9.942;2024-01-10T09:59:54;-2.50;98.50
33673;DHT22;20011;51.510;9.942;2024-01-10T10:02:24;-2.50;98.50
33673;DHT22;20011;51.510;9.942;2024-01-10T10:05:08;-2.60;99.00
33673;DHT22;20011;51.510;9.942;2024-01-10T10:07:52;-2.60;99.20
33673;DHT22;20011;51.510;9.942;2024-01-10T10:10:22;-2.40;99.10
33673;DHT22;20011;51.510;9.942;2024-01-10T10:12:51;-1.40;99.00
33673;DHT22;20011;51.510;9.942;2024-01-10T10:15:22;-1.90;98.60
33673;DHT22;20011;51.510;9.942;2024-01-10T10:17:50;-2.30;98.40
33673;DHT22;20011;51.510;9.942;2024-01-10T10:20:22;-2.10;98.30
33673;DHT22;20011;51.510;9.942;2024-01-10T10:23:08;-2.30;98.20
33673;DHT22;20011;51.510;9.942;2024-01-10T10:25:43;-1.80;98.60
33673;DHT22;20011;51.510;9.942;2024-01-10T10:28:11;-1.90;98.70
33673;DHT22;20011;51.510;9.942;2024-01-10T10:30:55;-1.50;98.50
33673;DHT22;20011;51.510;9.942;2024-01-10T10:33:22;-2.10;98.30
33673;DHT22;20011;51.510;9.942;2024-01-10T10:35:50;-2.00;99.00
33673;DHT22;20011;51.510;9.942;2024-01-10T10:38:22;-1.90;98.60
33673;DHT22;20011;51.510;9.942;2024-01-10T10:40:50;-1.50;98.50
33673;DHT22;20011;51.510;9.942;2024-01-10T10:43:19;-1.50;97.80
33673;DHT22;20011;51.510;9.942;2024-01-10T10:45:49;-1.90;98.10
33673;DHT22;20011;51.510;9.942;2024-01-10T10:48:20;-1.80;98.20
33673;DHT22;20011;51.510;9.942;2024-01-10T10:51:02;-1.80;97.90
33673;DHT22;20011;51.510;9.942;2024-01-10T10:53:31;-1.80;98.20
33673;DHT22;20011;51.510;9.942;2024-01-10T10:56:00;-1.70;98.00
33673;DHT22;20011;51.510;9.942;2024-01-10T10:58:32;-1.40;98.10
33673;DHT22;20011;51.510;9.942;2024-01-10T11:01:00;-1.50;97.90
33673;DHT22;20011;51.510;9.942;2024-01-10T11:03:28;-1.80;97.50
33673;DHT22;20011;51.510;9.942;2024-01-10T11:05:58;-1.60;97.80
33673;DHT22;20011;51.510;9.942;2024-01-10T11:08:26;-1.70;98.10
33673;DHT22;20011;51.510;9.942;2024-01-10T11:10:55;-1.70;97.90
33673;DHT22;20011;51.510;9.942;2024-01-10T11:19:03;-1.50;97.80
33673;DHT22;20011;51.510;9.942;2024-01-10T11:21:56;-1.50;97.50
33673;DHT22;20011;51.510;9.942;2024-01-10T11:24:27;-1.40;97.60
33673;DHT22;20011;51.510;9.942;2024-01-10T11:27:16;-1.40;97.50
33673;DHT22;20011;51.510;9.942;2024-01-10T11:29:46;-1.30;97.30
33673;DHT22;20011;51.510;9.942;2024-01-10T11:32:15;-1.30;97.20
33673;DHT22;20011;51.510;9.942;2024-01-10T11:37:20;-1.20;97.10
33673;DHT22;20011;51.510;9.942;2024-01-10T11:39:47;-0.90;97.10
33673;DHT22;20011;51.510;9.942;2024-01-10T11:42:24;-1.20;97.00
33673;DHT22;20011;51.510;9.942;2024-01-10T11:45:07;-1.20;97.00
33673;DHT22;20011;51.510;9.942;2024-01-10T11:47:41;-1.20;96.60
33673;DHT22;20011;51.510;9.942;2024-01-10T11:50:08;-1.10;96.50
33673;DHT22;20011;51.510;9.942;2024-01-10T11:52:37;-0.90;95.60
33673;DHT22;20011;51.510;9.942;2024-01-10T11:55:04;-0.10;95.90
33673;DHT22;20011;51.510;9.942;2024-01-10T11:57:34;-1.00;96.20
33673;DHT22;20011;51.510;9.942;2024-01-10T12:00:01;-0.80;96.70
33673;DHT22;20011;51.510;9.942;2024-01-10T12:02:32;-0.80;96.50
33673;DHT22;20011;51.510;9.942;2024-01-10T12:05:00;-0.50;96.40
33673;DHT22;20011;51.510;9.942;2024-01-10T12:07:27;-0.70;96.80
33673;DHT22;20011;51.510;9.942;2024-01-10T12:09:54;-0.80;96.70
33673;DHT22;20011;51.510;9.942;2024-01-10T12:12:22;-0.80;96.90
33673;DHT22;20011;51.510;9.942;2024-01-10T12:14:50;-0.60;96.60
33673;DHT22;20011;51.510;9.942;2024-01-10T12:17:18;-0.80;96.70
33673;DHT22;20011;51.510;9.942;2024-01-10T12:19:46;-0.70;96.90
33673;DHT22;20011;51.510;9.942;2024-01-10T12:22:18;-0.60;96.90
33673;DHT22;20011;51.510;9.942;2024-01-10T12:24:48;-0.50;96.90
33673;DHT22;20011;51.510;9.942;2024-01-10T12:27:17;-0.50;96.70
33673;DHT22;20011;51.510;9.942;2024-01-10T12:29:48;-0.40;96.30
33673;DHT22;20011;51.510;9.942;2024-01-10T12:32:18;-0.50;96.40
33673;DHT22;20011;51.510;9.942;2024-01-10T12:34:46;-0.30;96.10
33673;DHT22;20011;51.510;9.942;2024-01-10T12:37:13;-0.20;96.10
33673;DHT22;20011;51.510;9.942;2024-01-10T12:39:40;-0.10;96.30
33673;DHT22;20011;51.510;9.942;2024-01-10T12:42:07;-0.40;96.00
33673;DHT22;20011;51.510;9.942;2024-01-10T12:44:34;-0.30;96.30
33673;DHT22;20011;51.510;9.942;2024-01-10T12:47:02;0.50;96.40
33673;DHT22;20011;51.510;9.942;2024-01-10T12:49:29;-0.20;96.00
33673;DHT22;20011;51.510;9.942;2024-01-10T12:51:56;-0.10;95.90
33673;DHT22;20011;51.510;9.942;2024-01-10T12:54:23;-0.10;95.80
33673;DHT22;20011;51.510;9.942;2024-01-10T12:56:50;0.30;95.90
33673;DHT22;20011;51.510;9.942;2024-01-10T12:59:18;-0.10;95.50
33673;DHT22;20011;51.510;9.942;2024-01-10T13:01:45;0.00;95.70
33673;DHT22;20011;51.510;9.942;2024-01-10T13:04:13;0.20;95.50
33673;DHT22;20011;51.510;9.942;2024-01-10T13:06:40;0.20;95.70
33673;DHT22;20011;51.510;9.942;2024-01-10T13:09:07;0.00;95.60
33673;DHT22;20011;51.510;9.942;2024-01-10T13:11:35;0.00;95.40
33673;DHT22;20011;51.510;9.942;2024-01-10T13:14:02;0.10;95.30
33673;DHT22;20011;51.510;9.942;2024-01-10T13:16:29;0.10;95.40
33673;DHT22;20011;51.510;9.942;2024-01-10T13:19:00;0.20;95.50
33673;DHT22;20011;51.510;9.942;2024-01-10T13:21:27;0.30;95.30
33673;DHT22;20011;51.510;9.942;2024-01-10T13:23:54;0.30;95.40
33673;DHT22;20011;51.510;9.942;2024-01-10T13:26:21;0.40;95.20
33673;DHT22;20011;51.510;9.942;2024-01-10T13:28:49;0.50;95.30
33673;DHT22;20011;51.510;9.942;2024-01-10T13:31:17;0.70;94.80
33673;DHT22;20011;51.510;9.942;2024-01-10T13:33:45;0.50;94.60
33673;DHT22;20011;51.510;9.942;2024-01-10T13:36:13;0.50;94.60
33673;DHT22;20011;51.510;9.942;2024-01-10T13:38:41;0.80;94.60
33673;DHT22;20011;51.510;9.942;2024-01-10T13:41:08;0.50;94.90
33673;DHT22;20011;51.510;9.942;2024-01-10T13:43:36;0.90;95.00
33673;DHT22;20011;51.510;9.942;2024-01-10T13:46:03;0.40;94.80
33673;DHT22;20011;51.510;9.942;2024-01-10T13:48:35;0.40;94.90
33673;DHT22;20011;51.510;9.942;2024-01-10T13:51:02;0.40;94.90
33673;DHT22;20011;51.510;9.942;2024-01-10T13:53:29;0.40;95.40
33673;DHT22;20011;51.510;9.942;2024-01-10T13:55:57;0.50;95.50
33673;DHT22;20011;51.510;9.942;2024-01-10T13:58:24;0.80;95.30
33673;DHT22;20011;51.510;9.942;2024-01-10T14:00:51;0.50;95.50
33673;DHT22;20011;51.510;9.942;2024-01-10T14:03:18;0.40;95.90
33673;DHT22;20011;51.510;9.942;2024-01-10T14:05:46;0.70;96.10
33673;DHT22;20011;51.510;9.942;2024-01-10T14:08:13;0.40;95.90
33673;DHT22;20011;51.510;9.942;2024-01-10T14:10:40;0.50;95.60
33673;DHT22;20011;51.510;9.942;2024-01-10T14:13:09;0.50;95.30
33673;DHT22;20011;51.510;9.942;2024-01-10T14:15:36;0.60;95.30
33673;DHT22;20011;51.510;9.942;2024-01-10T14:18:03;0.50;95.60
33673;DHT22;20011;51.510;9.942;2024-01-10T14:20:32;0.60;94.90
33673;DHT22;20011;51.510;9.942;2024-01-10T14:22:59;0.50;95.10
33673;DHT22;20011;51.510;9.942;2024-01-10T14:25:27;0.40;95.30
33673;DHT22;20011;51.510;9.942;2024-01-10T14:27:55;0.70;95.30
33673;DHT22;20011;51.510;9.942;2024-01-10T14:30:22;0.70;94.70
33673;DHT22;20011;51.510;9.942;2024-01-10T14:32:52;0.60;95.00
33673;DHT22;20011;51.510;9.942;2024-01-10T14:35:19;0.60;95.90
33673;DHT22;20011;51.510;9.942;2024-01-10T14:37:47;0.50;95.90
33673;DHT22;20011;51.510;9.942;2024-01-10T14:40:14;0.60;96.20
33673;DHT22;20011;51.510;9.942;2024-01-10T14:42:41;0.40;96.80
33673;DHT22;20011;51.510;9.942;2024-01-10T14:45:09;0.50;96.60
33673;DHT22;20011;51.510;9.942;2024-01-10T14:47:37;0.40;96.60
33673;DHT22;20011;51.510;9.942;2024-01-10T14:50:05;0.40;96.70
33673;DHT22;20011;51.510;9.942;2024-01-10T14:52:32;0.40;97.00
33673;DHT22;20011;51.510;9.942;2024-01-10T14:54:59;0.50;96.90
33673;DHT22;20011;51.510;9.942;2024-01-10T14:57:26;0.30;96.80
33673;DHT22;20011;51.510;9.942;2024-01-10T14:59:53;0.20;97.10
33673;DHT22;20011;51.510;9.942;2024-01-10T15:02:20;0.00;97.40
33673;DHT22;20011;51.510;9.942;2024-01-10T15:04:47;0.50;97.50
33673;DHT22;20011;51.510;9.942;2024-01-10T15:07:14;0.10;97.30
33673;DHT22;20011;51.510;9.942;2024-01-10T15:09:43;0.20;97.50
33673;DHT22;20011;51.510;9.942;2024-01-10T15:12:10;0.30;97.40
33673;DHT22;20011;51.510;9.942;2024-01-10T15:14:38;0.30;97.30
33673;DHT22;20011;51.510;9.942;2024-01-10T15:17:07;0.30;97.70
33673;DHT22;20011;51.510;9.942;2024-01-10T15:19:36;0.00;97.50
33673;DHT22;20011;51.510;9.942;2024-01-10T15:22:04;0.20;97.80
33673;DHT22;20011;51.510;9.942;2024-01-10T15:24:32;0.10;98.10
33673;DHT22;20011;51.510;9.942;2024-01-10T15:26:59;0.20;97.70
33673;DHT22;20011;51.510;9.942;2024-01-10T15:29:34;0.20;97.80
33673;DHT22;20011;51.510;9.942;2024-01-10T15:32:01;0.10;98.00
33673;DHT22;20011;51.510;9.942;2024-01-10T15:34:28;0.30;98.00
33673;DHT22;20011;51.510;9.942;2024-01-10T15:36:56;0.10;97.90
33673;DHT22;20011;51.510;9.942;2024-01-10T15:39:23;0.00;98.40
33673;DHT22;20011;51.510;9.942;2024-01-10T15:41:51;0.10;98.20
33673;DHT22;20011;51.510;9.942;2024-01-10T15:44:19;0.30;98.00
33673;DHT22;20011;51.510;9.942;2024-01-10T15:46:49;0.10;97.70